createdAt,value
2022-08-03T00:00:49.618Z,55.04
2022-08-03T00:01:49.610Z,55.13
2022-08-03T00:02:49.645Z,54.94
2022-08-03T00:03:49.611Z,55.04
2022-08-03T00:04:49.618Z,55.13
2022-08-03T00:06:04.206Z,55.04
2022-08-03T00:06:49.620Z,55.13
2022-08-03T00:07:49.746Z,55.13
2022-08-03T00:08:49.627Z,55.13
2022-08-03T00:09:49.629Z,55.22
2022-08-03T00:10:49.623Z,55.13
2022-08-03T00:11:49.625Z,54.94
2022-08-03T00:12:49.630Z,54.94
2022-08-03T00:13:49.636Z,54.94
2022-08-03T00:14:49.633Z,55.04
2022-08-03T00:15:49.630Z,55.13
2022-08-03T00:16:49.628Z,55.13
2022-08-03T00:17:52.720Z,55.13
2022-08-03T00:18:49.636Z,54.84
2022-08-03T00:19:49.634Z,54.94
2022-08-03T00:20:49.632Z,54.74
2022-08-03T00:21:49.655Z,54.74
2022-08-03T00:22:49.633Z,54.94
2022-08-03T00:23:51.192Z,54.94
2022-08-03T00:24:49.642Z,54.74
2022-08-03T00:25:49.665Z,54.84
2022-08-03T00:26:49.644Z,54.94
2022-08-03T00:27:50.426Z,55.13
2022-08-03T00:28:49.656Z,54.74
2022-08-03T00:30:00.114Z,54.74
2022-08-03T00:30:49.646Z,55.04
2022-08-03T00:31:52.402Z,55.04
2022-08-03T00:32:49.650Z,55.04
2022-08-03T00:33:58.782Z,55.22
2022-08-03T00:34:57.990Z,55.04
2022-08-03T00:35:50.987Z,54.94
2022-08-03T00:36:49.658Z,54.84
2022-08-03T00:37:49.651Z,54.84
2022-08-03T00:38:49.656Z,55.22
2022-08-03T00:39:49.652Z,54.94
2022-08-03T00:40:49.656Z,54.84
2022-08-03T00:41:49.653Z,55.13
2022-08-03T00:42:49.669Z,55.13
2022-08-03T00:43:49.663Z,55.20
2022-08-03T00:44:49.658Z,55.13
2022-08-03T00:45:50.156Z,55.13
2022-08-03T00:46:49.668Z,55.13
2022-08-03T00:47:49.659Z,55.22
2022-08-03T00:48:49.667Z,55.13
2022-08-03T00:49:49.671Z,55.20
2022-08-03T00:50:49.661Z,55.42
2022-08-03T00:51:49.670Z,55.13
2022-08-03T00:52:49.666Z,55.04
2022-08-03T00:53:49.668Z,55.04
2022-08-03T00:54:49.668Z,55.22
2022-08-03T00:55:49.666Z,55.00
2022-08-03T00:56:59.715Z,55.52
2022-08-03T00:57:49.680Z,55.32
2022-08-03T00:58:49.679Z,55.10
2022-08-03T00:59:49.679Z,55.13
2022-08-03T01:00:49.695Z,55.13
2022-08-03T01:01:49.786Z,55.13
2022-08-03T01:02:49.679Z,55.42
2022-08-03T01:03:49.679Z,55.52
2022-08-03T01:04:49.675Z,55.42
2022-08-03T01:05:49.678Z,55.40
2022-08-03T01:06:49.688Z,55.71
2022-08-03T01:07:49.690Z,55.40
2022-08-03T01:08:49.682Z,55.52
2022-08-03T01:09:49.690Z,55.58
2022-08-03T01:10:49.682Z,55.68
2022-08-03T01:12:00.257Z,55.71
2022-08-03T01:12:49.696Z,55.58
2022-08-03T01:14:01.063Z,55.62
2022-08-03T01:14:49.689Z,55.78
2022-08-03T01:15:49.701Z,55.20
2022-08-03T01:16:49.702Z,55.78
2022-08-03T01:17:49.694Z,55.30
2022-08-03T01:18:49.696Z,55.30
2022-08-03T01:19:49.697Z,55.30
2022-08-03T01:20:49.693Z,55.30
2022-08-03T01:21:49.693Z,55.40
2022-08-03T01:22:49.693Z,55.40
2022-08-03T01:23:49.702Z,55.40
2022-08-03T01:24:49.697Z,55.40
2022-08-03T01:25:54.300Z,55.40
2022-08-03T01:26:49.710Z,55.78
2022-08-03T01:27:49.707Z,55.58
2022-08-03T01:28:49.701Z,55.88
2022-08-03T01:29:49.709Z,55.98
2022-08-03T01:30:49.714Z,55.78
2022-08-03T01:32:54.553Z,55.88
2022-08-03T01:32:59.811Z,55.88
2022-08-03T01:33:49.717Z,56.07
2022-08-03T01:34:49.706Z,55.98
2022-08-03T01:35:49.714Z,56.07
2022-08-03T01:36:49.711Z,55.78
2022-08-03T01:37:49.713Z,55.88
2022-08-03T01:38:49.713Z,55.88
2022-08-03T01:39:49.710Z,56.07
2022-08-03T01:40:49.718Z,56.07
2022-08-03T01:41:49.709Z,55.98
2022-08-03T01:42:49.711Z,55.88
2022-08-03T01:43:55.339Z,55.78
2022-08-03T01:44:49.712Z,55.98
2022-08-03T01:45:49.723Z,55.98
2022-08-03T01:46:49.722Z,55.49
2022-08-03T01:47:49.729Z,55.78
2022-08-03T01:48:49.725Z,56.07
2022-08-03T01:49:49.799Z,55.78
2022-08-03T01:50:49.749Z,56.07
2022-08-03T01:52:03.654Z,56.07
2022-08-03T01:52:49.721Z,55.98
2022-08-03T01:53:49.731Z,56.07
2022-08-03T01:54:49.743Z,56.07
2022-08-03T01:55:49.730Z,55.98
2022-08-03T01:56:49.735Z,56.07
2022-08-03T01:58:06.087Z,56.07
2022-08-03T01:58:49.724Z,55.88
2022-08-03T01:59:49.730Z,55.98
2022-08-03T02:00:49.752Z,56.26
2022-08-03T02:02:31.752Z,56.26
2022-08-03T02:02:49.800Z,56.26
2022-08-03T02:04:00.454Z,56.46
2022-08-03T02:04:49.741Z,56.36
2022-08-03T02:05:54.110Z,56.56
2022-08-03T02:07:02.847Z,56.56
2022-08-03T02:07:49.739Z,56.16
2022-08-03T02:08:49.740Z,56.16
2022-08-03T02:09:49.740Z,56.26
2022-08-03T02:10:49.750Z,56.16
2022-08-03T02:11:49.744Z,56.36
2022-08-03T02:12:51.236Z,56.16
2022-08-03T02:13:49.747Z,56.26
2022-08-03T02:14:49.749Z,56.36
2022-08-03T02:15:49.739Z,56.16
2022-08-03T02:16:49.751Z,55.98
2022-08-03T02:17:49.749Z,56.46
2022-08-03T02:18:49.741Z,56.46
2022-08-03T02:19:49.758Z,56.07
2022-08-03T02:20:49.746Z,56.46
2022-08-03T02:21:56.912Z,56.46
2022-08-03T02:22:49.748Z,56.26
2022-08-03T02:23:49.748Z,56.56
2022-08-03T02:24:51.235Z,56.56
2022-08-03T02:25:49.755Z,56.16
2022-08-03T02:26:49.743Z,56.26
2022-08-03T02:27:49.748Z,56.36
2022-08-03T02:28:49.751Z,56.26
2022-08-03T02:29:49.752Z,56.26
2022-08-03T02:30:51.871Z,56.36
2022-08-03T02:31:49.753Z,56.36
2022-08-03T02:32:49.754Z,56.46
2022-08-03T02:33:49.762Z,56.36
2022-08-03T02:34:49.764Z,56.26
2022-08-03T02:35:49.753Z,56.07
2022-08-03T02:36:49.754Z,56.26
2022-08-03T02:37:50.102Z,56.07
2022-08-03T02:38:49.752Z,56.16
2022-08-03T02:39:49.752Z,56.07
2022-08-03T02:40:49.754Z,56.65
2022-08-03T02:41:49.763Z,56.26
2022-08-03T02:42:49.768Z,56.36
2022-08-03T02:44:06.535Z,56.46
2022-08-03T02:44:49.767Z,56.94
2022-08-03T02:45:49.764Z,56.43
2022-08-03T02:46:49.763Z,56.62
2022-08-03T02:47:53.847Z,56.62
2022-08-03T02:48:49.766Z,56.75
2022-08-03T02:49:52.134Z,56.92
2022-08-03T02:50:49.758Z,56.75
2022-08-03T02:51:49.774Z,56.82
2022-08-03T02:52:49.771Z,56.72
2022-08-03T02:53:49.759Z,56.52
2022-08-03T02:54:49.768Z,56.43
2022-08-03T02:55:49.772Z,56.72
2022-08-03T02:56:49.774Z,56.62
2022-08-03T02:57:49.776Z,56.72
2022-08-03T02:58:49.773Z,56.62
2022-08-03T02:59:49.768Z,56.52
2022-08-03T03:00:49.819Z,56.52
2022-08-03T03:01:49.768Z,56.62
2022-08-03T03:02:49.769Z,56.43
2022-08-03T03:03:49.769Z,56.72
2022-08-03T03:04:59.689Z,56.62
2022-08-03T03:05:55.239Z,56.43
2022-08-03T03:06:49.789Z,56.52
2022-08-03T03:07:51.921Z,56.62
2022-08-03T03:08:49.775Z,56.52
2022-08-03T03:09:49.778Z,56.62
2022-08-03T03:10:53.294Z,56.82
2022-08-03T03:11:49.785Z,56.72
2022-08-03T03:12:49.790Z,56.82
2022-08-03T03:13:49.779Z,56.72
2022-08-03T03:14:49.784Z,56.75
2022-08-03T03:15:49.790Z,56.62
2022-08-03T03:16:51.903Z,56.72
2022-08-03T03:17:49.798Z,56.72
2022-08-03T03:18:49.783Z,56.62
2022-08-03T03:19:49.782Z,56.82
2022-08-03T03:20:49.779Z,56.72
2022-08-03T03:21:49.799Z,56.72
2022-08-03T03:22:49.791Z,56.82
2022-08-03T03:23:49.786Z,56.75
2022-08-03T03:24:49.780Z,56.82
2022-08-03T03:25:49.794Z,56.72
2022-08-03T03:26:49.788Z,56.62
2022-08-03T03:27:50.913Z,56.62
2022-08-03T03:28:49.791Z,56.72
2022-08-03T03:29:49.806Z,56.62
2022-08-03T03:30:52.864Z,56.62
2022-08-03T03:31:49.797Z,56.72
2022-08-03T03:32:52.461Z,56.72
2022-08-03T03:33:49.800Z,56.72
2022-08-03T03:34:49.800Z,56.92
2022-08-03T03:35:49.803Z,56.92
2022-08-03T03:36:49.803Z,56.43
2022-08-03T03:37:49.799Z,56.62
2022-08-03T03:38:49.800Z,56.52
2022-08-03T03:39:49.799Z,56.52
2022-08-03T03:40:49.788Z,56.62
2022-08-03T03:41:49.802Z,56.62
2022-08-03T03:42:49.793Z,57.20
2022-08-03T03:43:49.803Z,56.72
2022-08-03T03:44:49.806Z,56.72
2022-08-03T03:45:49.797Z,57.01
2022-08-03T03:46:49.799Z,56.43
2022-08-03T03:47:49.797Z,56.43
2022-08-03T03:48:49.812Z,56.82
2022-08-03T03:49:49.801Z,57.01
2022-08-03T03:50:49.813Z,57.11
2022-08-03T03:51:49.814Z,56.82
2022-08-03T03:52:49.802Z,57.20
2022-08-03T03:53:49.815Z,57.20
2022-08-03T03:54:49.808Z,57.11
2022-08-03T03:55:59.155Z,57.11
2022-08-03T03:56:49.815Z,57.20
2022-08-03T03:57:49.812Z,57.11
2022-08-03T03:58:49.803Z,57.30
2022-08-03T03:59:49.812Z,57.30
2022-08-03T04:00:49.921Z,57.40
2022-08-03T04:01:58.492Z,57.40
2022-08-03T04:02:49.813Z,57.40
2022-08-03T04:03:49.821Z,57.40
2022-08-03T04:04:49.805Z,57.20
2022-08-03T04:05:49.815Z,57.20
2022-08-03T04:06:49.808Z,57.30
2022-08-03T04:07:49.813Z,57.20
2022-08-03T04:08:49.806Z,57.20
2022-08-03T04:09:49.817Z,57.30
2022-08-03T04:10:49.811Z,57.30
2022-08-03T04:11:49.811Z,57.50
2022-08-03T04:12:50.429Z,57.40
2022-08-03T04:13:49.823Z,57.40
2022-08-03T04:14:49.823Z,57.30
2022-08-03T04:15:49.813Z,57.30
2022-08-03T04:16:49.813Z,57.40
2022-08-03T04:17:49.817Z,57.30
2022-08-03T04:18:49.818Z,57.40
2022-08-03T04:19:49.824Z,57.40
2022-08-03T04:20:49.813Z,57.11
2022-08-03T04:21:49.819Z,57.01
2022-08-03T04:22:49.826Z,57.11
2022-08-03T04:23:49.827Z,57.11
2022-08-03T04:24:49.817Z,57.11
2022-08-03T04:25:49.822Z,56.92
2022-08-03T04:26:52.759Z,57.20
2022-08-03T04:28:29.423Z,57.37
2022-08-03T04:28:49.815Z,57.30
2022-08-03T04:29:49.842Z,57.50
2022-08-03T04:30:49.833Z,57.30
2022-08-03T04:31:49.831Z,57.18
2022-08-03T04:32:49.834Z,57.37
2022-08-03T04:33:49.828Z,57.59
2022-08-03T04:34:49.825Z,57.59
2022-08-03T04:36:01.502Z,57.37
2022-08-03T04:36:49.829Z,57.18
2022-08-03T04:37:49.844Z,57.46
2022-08-03T04:38:49.830Z,57.40
2022-08-03T04:39:49.830Z,57.20
2022-08-03T04:40:49.825Z,57.40
2022-08-03T04:42:07.488Z,57.20
2022-08-03T04:42:49.834Z,57.40
2022-08-03T04:43:49.829Z,57.40
2022-08-03T04:44:49.832Z,57.40
2022-08-03T04:45:49.836Z,57.28
2022-08-03T04:46:52.782Z,57.20
2022-08-03T04:47:49.831Z,57.30
2022-08-03T04:48:49.827Z,57.40
2022-08-03T04:49:49.840Z,57.20
2022-08-03T04:50:49.839Z,57.18
2022-08-03T04:51:49.839Z,57.37
2022-08-03T04:52:49.840Z,57.28
2022-08-03T04:53:49.848Z,57.28
2022-08-03T04:54:50.947Z,57.40
2022-08-03T04:55:49.842Z,57.56
2022-08-03T04:56:49.829Z,57.56
2022-08-03T04:57:49.842Z,57.37
2022-08-03T04:58:49.839Z,57.46
2022-08-03T04:59:49.837Z,57.37
2022-08-03T05:00:49.839Z,57.37
2022-08-03T05:01:49.862Z,57.56
2022-08-03T05:02:49.849Z,57.46
2022-08-03T05:03:49.846Z,57.56
2022-08-03T05:04:49.988Z,57.56
2022-08-03T05:05:50.889Z,57.56
2022-08-03T05:06:54.944Z,57.37
2022-08-03T05:07:49.844Z,57.37
2022-08-03T05:08:49.849Z,57.56
2022-08-03T05:09:52.777Z,57.50
2022-08-03T05:10:49.843Z,57.40
2022-08-03T05:11:49.845Z,57.37
2022-08-03T05:12:49.850Z,57.20
2022-08-03T05:13:49.846Z,57.30
2022-08-03T05:14:49.846Z,57.30
2022-08-03T05:15:49.850Z,57.18
2022-08-03T05:16:49.848Z,57.40
2022-08-03T05:17:49.854Z,57.20
2022-08-03T05:18:49.841Z,57.20
2022-08-03T05:19:49.851Z,57.40
2022-08-03T05:20:49.856Z,57.30
2022-08-03T05:21:52.402Z,57.01
2022-08-03T05:22:49.852Z,56.52
2022-08-03T05:23:49.857Z,56.92
2022-08-03T05:24:49.863Z,56.82
2022-08-03T05:25:50.319Z,56.62
2022-08-03T05:26:49.861Z,56.62
2022-08-03T05:27:49.850Z,56.72
2022-08-03T05:28:51.306Z,56.43
2022-08-03T05:29:49.854Z,56.82
2022-08-03T05:30:49.858Z,56.85
2022-08-03T05:31:49.859Z,56.62
2022-08-03T05:32:49.860Z,57.04
2022-08-03T05:33:49.868Z,56.16
2022-08-03T05:34:49.867Z,56.46
2022-08-03T05:36:01.894Z,56.07
2022-08-03T05:36:49.871Z,56.36
2022-08-03T05:37:54.560Z,56.36
2022-08-03T05:38:49.862Z,56.16
2022-08-03T05:39:49.870Z,56.16
2022-08-03T05:40:57.384Z,56.36
2022-08-03T05:41:49.869Z,56.16
2022-08-03T05:42:49.870Z,56.46
2022-08-03T05:43:49.867Z,56.46
2022-08-03T05:44:49.871Z,56.46
2022-08-03T05:45:49.876Z,56.26
2022-08-03T05:46:49.879Z,56.36
2022-08-03T05:47:49.875Z,56.16
2022-08-03T05:48:49.875Z,56.36
2022-08-03T05:49:49.878Z,56.56
2022-08-03T05:50:49.883Z,56.07
2022-08-03T05:52:00.071Z,56.07
2022-08-03T05:52:49.880Z,56.07
2022-08-03T05:53:49.882Z,56.07
2022-08-03T05:54:56.013Z,56.16
2022-08-03T05:55:54.770Z,56.07
2022-08-03T05:56:49.904Z,55.78
2022-08-03T05:57:49.890Z,55.98
2022-08-03T05:58:49.890Z,55.90
2022-08-03T05:59:54.628Z,55.90
2022-08-03T06:00:49.888Z,56.00
2022-08-03T06:01:49.952Z,56.00
2022-08-03T06:02:49.895Z,56.00
2022-08-03T06:03:49.908Z,55.81
2022-08-03T06:04:49.894Z,55.88
2022-08-03T06:05:59.917Z,55.90
2022-08-03T06:06:49.898Z,55.90
2022-08-03T06:07:49.898Z,56.00
2022-08-03T06:08:49.895Z,55.90
2022-08-03T06:10:34.220Z,56.00
2022-08-03T06:10:49.906Z,56.10
2022-08-03T06:11:49.902Z,56.10
2022-08-03T06:12:49.909Z,56.00
2022-08-03T06:13:49.904Z,56.10
2022-08-03T06:14:49.912Z,56.10
2022-08-03T06:15:49.913Z,56.10
2022-08-03T06:16:49.922Z,56.10
2022-08-03T06:17:49.925Z,56.10
2022-08-03T06:18:49.918Z,56.00
2022-08-03T06:19:49.922Z,56.10
2022-08-03T06:20:50.374Z,56.10
2022-08-03T06:21:49.915Z,56.10
2022-08-03T06:22:50.723Z,56.10
2022-08-03T06:23:54.702Z,56.13
2022-08-03T06:24:53.251Z,56.10
2022-08-03T06:25:49.927Z,56.10
2022-08-03T06:26:49.933Z,55.81
2022-08-03T06:27:49.927Z,56.10
2022-08-03T06:28:51.389Z,55.90
2022-08-03T06:29:49.928Z,55.90
2022-08-03T06:30:49.944Z,56.10
2022-08-03T06:31:49.940Z,56.20
2022-08-03T06:32:52.108Z,56.00
2022-08-03T06:34:34.095Z,56.00
2022-08-03T06:34:49.940Z,55.52
2022-08-03T06:35:49.938Z,55.62
2022-08-03T06:36:49.945Z,55.90
2022-08-03T06:37:49.948Z,56.29
2022-08-03T06:38:49.953Z,56.68
2022-08-03T06:39:49.942Z,56.39
2022-08-03T06:40:49.947Z,56.20
2022-08-03T06:41:49.956Z,56.49
2022-08-03T06:42:49.988Z,56.20
2022-08-03T06:44:03.782Z,56.10
2022-08-03T06:44:49.958Z,56.20
2022-08-03T06:45:49.958Z,56.20
2022-08-03T06:46:49.962Z,56.29
2022-08-03T06:47:49.954Z,56.29
2022-08-03T06:48:49.958Z,56.10
2022-08-03T06:50:16.108Z,56.26
2022-08-03T06:50:49.959Z,56.49
2022-08-03T06:52:03.030Z,56.49
2022-08-03T06:52:49.970Z,56.97
2022-08-03T06:53:49.964Z,56.59
2022-08-03T06:54:49.965Z,56.87
2022-08-03T06:55:54.234Z,56.87
2022-08-03T06:56:49.965Z,56.97
2022-08-03T06:57:49.970Z,56.77
2022-08-03T06:58:49.963Z,56.77
2022-08-03T07:00:09.187Z,56.77
2022-08-03T07:00:49.968Z,56.68
2022-08-03T07:01:50.154Z,56.77
2022-08-03T07:02:51.795Z,56.87
2022-08-03T07:03:52.468Z,56.59
2022-08-03T07:04:49.974Z,56.77
2022-08-03T07:05:49.975Z,56.77
2022-08-03T07:06:49.983Z,56.59
2022-08-03T07:07:49.970Z,56.59
2022-08-03T07:08:52.918Z,56.56
2022-08-03T07:09:57.115Z,56.68
2022-08-03T07:10:49.975Z,56.65
2022-08-03T07:11:49.981Z,56.75
2022-08-03T07:12:56.032Z,56.59
2022-08-03T07:13:49.983Z,56.59
2022-08-03T07:14:49.981Z,56.56
2022-08-03T07:15:55.391Z,56.68
2022-08-03T07:16:49.981Z,56.49
2022-08-03T07:17:49.984Z,56.68
2022-08-03T07:18:49.994Z,56.85
2022-08-03T07:19:49.987Z,56.87
2022-08-03T07:20:50.004Z,56.77
2022-08-03T07:21:49.988Z,56.87
2022-08-03T07:22:49.989Z,56.97
2022-08-03T07:23:49.989Z,56.20
2022-08-03T07:24:50.004Z,56.20
2022-08-03T07:25:49.991Z,56.20
2022-08-03T07:26:50.003Z,56.29
2022-08-03T07:27:51.809Z,56.29
2022-08-03T07:28:49.994Z,56.29
2022-08-03T07:29:49.994Z,56.29
2022-08-03T07:30:50.013Z,56.59
2022-08-03T07:31:49.999Z,56.29
2022-08-03T07:32:50.600Z,56.51
2022-08-03T07:33:50.021Z,56.39
2022-08-03T07:34:50.010Z,56.32
2022-08-03T07:35:50.013Z,56.23
2022-08-03T07:36:50.019Z,56.32
2022-08-03T07:37:54.621Z,56.32
2022-08-03T07:38:50.027Z,56.61
2022-08-03T07:39:50.031Z,56.51
2022-08-03T07:40:50.019Z,56.32
2022-08-03T07:41:50.024Z,55.83
2022-08-03T07:42:52.213Z,56.03
2022-08-03T07:43:50.029Z,56.13
2022-08-03T07:44:50.030Z,56.13
2022-08-03T07:45:50.025Z,55.83
2022-08-03T07:46:50.031Z,55.83
2022-08-03T07:47:53.264Z,55.93
2022-08-03T07:48:50.038Z,56.23
2022-08-03T07:49:50.028Z,55.83
2022-08-03T07:50:50.045Z,55.93
2022-08-03T07:51:50.039Z,56.03
2022-08-03T07:52:50.606Z,55.93
2022-08-03T07:53:50.038Z,55.83
2022-08-03T07:54:50.050Z,56.13
2022-08-03T07:55:50.059Z,56.13
2022-08-03T07:56:50.066Z,55.83
2022-08-03T07:57:50.055Z,55.74
2022-08-03T07:58:50.063Z,55.74
2022-08-03T07:59:56.971Z,56.15
2022-08-03T08:00:50.123Z,55.54
2022-08-03T08:01:50.156Z,55.83
2022-08-03T08:02:50.070Z,55.96
2022-08-03T08:03:53.095Z,55.47
2022-08-03T08:04:50.067Z,55.47
2022-08-03T08:05:50.099Z,55.67
2022-08-03T08:06:50.079Z,55.47
2022-08-03T08:07:51.009Z,55.28
2022-08-03T08:08:50.083Z,55.47
2022-08-03T08:09:50.081Z,55.87
2022-08-03T08:10:57.931Z,55.67
2022-08-03T08:11:50.091Z,55.67
2022-08-03T08:12:50.098Z,55.77
2022-08-03T08:13:50.096Z,55.77
2022-08-03T08:14:50.095Z,55.38
2022-08-03T08:15:50.096Z,55.87
2022-08-03T08:16:50.108Z,55.67
2022-08-03T08:17:50.111Z,55.77
2022-08-03T08:18:50.111Z,55.67
2022-08-03T08:19:53.177Z,55.67
2022-08-03T08:20:50.112Z,55.47
2022-08-03T08:22:01.837Z,55.47
2022-08-03T08:22:50.117Z,55.47
2022-08-03T08:23:57.011Z,55.38
2022-08-03T08:24:50.121Z,55.28
2022-08-03T08:25:50.130Z,55.47
2022-08-03T08:26:50.141Z,55.41
2022-08-03T08:28:29.875Z,55.50
2022-08-03T08:28:50.145Z,55.18
2022-08-03T08:29:55.221Z,55.21
2022-08-03T08:30:50.152Z,55.60
2022-08-03T08:31:50.145Z,55.31
2022-08-03T08:32:50.162Z,55.41
2022-08-03T08:34:05.402Z,55.60
2022-08-03T08:34:50.154Z,55.31
2022-08-03T08:35:50.150Z,55.11
2022-08-03T08:36:50.159Z,55.11
2022-08-03T08:37:50.736Z,55.21
2022-08-03T08:38:50.173Z,55.21
2022-08-03T08:39:50.175Z,55.41
2022-08-03T08:40:50.177Z,55.31
2022-08-03T08:41:53.209Z,55.21
2022-08-03T08:42:58.743Z,55.31
2022-08-03T08:43:50.183Z,55.31
2022-08-03T08:44:50.185Z,55.31
2022-08-03T08:45:50.190Z,55.31
2022-08-03T08:46:50.200Z,55.21
2022-08-03T08:47:51.554Z,55.31
2022-08-03T08:48:50.193Z,55.11
2022-08-03T08:50:08.959Z,55.41
2022-08-03T08:50:50.206Z,55.21
2022-08-03T08:51:59.245Z,55.31
2022-08-03T08:52:50.208Z,55.31
2022-08-03T08:53:50.208Z,55.41
2022-08-03T08:54:50.750Z,55.41
2022-08-03T08:55:56.921Z,55.21
2022-08-03T08:56:50.227Z,55.31
2022-08-03T08:57:50.230Z,55.31
2022-08-03T08:58:50.228Z,55.31
2022-08-03T08:59:53.435Z,55.21
2022-08-03T09:00:50.322Z,55.41
2022-08-03T09:01:50.239Z,55.31
2022-08-03T09:02:50.236Z,55.31
2022-08-03T09:03:50.239Z,55.11
2022-08-03T09:04:50.352Z,55.21
2022-08-03T09:05:56.638Z,55.21
2022-08-03T09:07:10.516Z,55.31
2022-08-03T09:07:50.245Z,55.41
2022-08-03T09:08:50.249Z,55.11
2022-08-03T09:10:10.469Z,55.31
2022-08-03T09:10:50.267Z,55.31
2022-08-03T09:11:51.561Z,55.11
2022-08-03T09:12:50.271Z,55.21
2022-08-03T09:13:50.267Z,55.50
2022-08-03T09:15:14.614Z,55.69
2022-08-03T09:16:00.927Z,55.69
2022-08-03T09:16:50.284Z,55.60
2022-08-03T09:17:51.356Z,55.79
2022-08-03T09:18:50.295Z,55.69
2022-08-03T09:20:03.765Z,55.79
2022-08-03T09:20:50.283Z,55.69
2022-08-03T09:21:50.293Z,55.60
2022-08-03T09:22:50.303Z,55.31
2022-08-03T09:24:02.188Z,55.41
2022-08-03T09:25:08.673Z,55.31
2022-08-03T09:25:50.303Z,55.50
2022-08-03T09:26:50.303Z,55.50
2022-08-03T09:27:50.316Z,55.50
2022-08-03T09:28:57.986Z,55.89
2022-08-03T09:29:50.326Z,55.60
2022-08-03T09:30:50.326Z,55.69
2022-08-03T09:31:50.321Z,55.69
2022-08-03T09:32:50.320Z,55.89
2022-08-03T09:33:50.320Z,56.18
2022-08-03T09:34:50.317Z,55.89
2022-08-03T09:35:54.878Z,55.99
2022-08-03T09:36:50.331Z,56.05
2022-08-03T09:38:11.168Z,56.09
2022-08-03T09:38:50.369Z,56.09
2022-08-03T09:39:50.342Z,56.18
2022-08-03T09:40:50.345Z,56.09
2022-08-03T09:41:50.347Z,56.09
2022-08-03T09:42:50.338Z,56.05
2022-08-03T09:43:50.341Z,55.99
2022-08-03T09:44:50.349Z,55.89
2022-08-03T09:45:50.356Z,55.89
2022-08-03T09:46:50.355Z,55.99
2022-08-03T09:47:50.371Z,55.99
2022-08-03T09:48:50.370Z,55.99
2022-08-03T09:49:50.358Z,55.87
2022-08-03T09:50:58.797Z,56.09
2022-08-03T09:52:32.485Z,56.09
2022-08-03T09:52:52.620Z,55.87
2022-08-03T09:53:59.292Z,56.15
2022-08-03T09:54:50.375Z,55.99
2022-08-03T09:56:33.293Z,56.09
2022-08-03T09:56:50.367Z,56.09
2022-08-03T09:57:50.380Z,56.05
2022-08-03T09:58:50.374Z,56.09
2022-08-03T09:59:50.377Z,56.05
2022-08-03T10:00:50.407Z,55.96
2022-08-03T10:01:50.390Z,56.05
2022-08-03T10:02:50.380Z,55.89
2022-08-03T10:04:02.703Z,55.96
2022-08-03T10:04:50.402Z,55.96
2022-08-03T10:05:50.397Z,55.96
2022-08-03T10:06:50.403Z,55.99
2022-08-03T10:07:50.397Z,56.09
2022-08-03T10:08:50.407Z,56.09
2022-08-03T10:09:50.410Z,55.99
2022-08-03T10:10:50.402Z,56.09
2022-08-03T10:11:50.407Z,55.99
2022-08-03T10:12:50.408Z,55.96
2022-08-03T10:13:50.413Z,55.99
2022-08-03T10:14:50.412Z,55.99
2022-08-03T10:16:21.350Z,56.18
2022-08-03T10:16:50.425Z,55.99
2022-08-03T10:17:50.413Z,55.60
2022-08-03T10:18:50.415Z,55.47
2022-08-03T10:19:50.422Z,55.47
2022-08-03T10:20:50.425Z,55.47
2022-08-03T10:21:50.430Z,55.41
2022-08-03T10:22:50.433Z,55.50
2022-08-03T10:23:50.437Z,55.50
2022-08-03T10:24:50.430Z,55.79
2022-08-03T10:25:50.442Z,55.60
2022-08-03T10:26:50.455Z,55.31
2022-08-03T10:27:50.442Z,55.41
2022-08-03T10:28:50.450Z,55.41
2022-08-03T10:29:50.456Z,55.50
2022-08-03T10:30:50.453Z,55.50
2022-08-03T10:31:57.425Z,55.60
2022-08-03T10:32:50.446Z,55.79
2022-08-03T10:33:53.200Z,55.69
2022-08-03T10:34:50.455Z,55.69
2022-08-03T10:35:50.457Z,55.67
2022-08-03T10:36:50.462Z,55.69
2022-08-03T10:37:57.021Z,55.69
2022-08-03T10:38:50.471Z,55.69
2022-08-03T10:39:50.487Z,55.67
2022-08-03T10:40:53.483Z,55.69
2022-08-03T10:41:50.473Z,55.69
2022-08-03T10:42:50.476Z,55.69
2022-08-03T10:43:50.467Z,55.77
2022-08-03T10:44:50.477Z,55.67
2022-08-03T10:45:50.479Z,55.79
2022-08-03T10:46:50.496Z,55.50
2022-08-03T10:47:50.485Z,55.69
2022-08-03T10:48:50.487Z,55.87
2022-08-03T10:49:50.554Z,55.60
2022-08-03T10:50:50.490Z,55.69
2022-08-03T10:51:54.519Z,55.79
2022-08-03T10:52:50.510Z,55.89
2022-08-03T10:53:54.387Z,55.77
2022-08-03T10:54:50.496Z,55.47
2022-08-03T10:55:50.493Z,55.21
2022-08-03T10:56:50.591Z,55.21
2022-08-03T10:57:50.506Z,55.21
2022-08-03T10:58:53.440Z,55.21
2022-08-03T10:59:50.507Z,55.21
2022-08-03T11:00:50.612Z,55.31
2022-08-03T11:02:00.061Z,55.31
2022-08-03T11:02:50.512Z,55.41
2022-08-03T11:03:50.515Z,55.02
2022-08-03T11:04:50.517Z,55.11
2022-08-03T11:05:50.520Z,55.21
2022-08-03T11:06:50.522Z,55.21
2022-08-03T11:07:53.067Z,55.28
2022-08-03T11:08:50.515Z,55.31
2022-08-03T11:09:50.522Z,55.31
2022-08-03T11:10:50.547Z,55.28
2022-08-03T11:11:50.525Z,55.31
2022-08-03T11:12:50.527Z,55.41
2022-08-03T11:13:50.537Z,55.18
2022-08-03T11:14:50.527Z,55.41
2022-08-03T11:15:50.532Z,55.31
2022-08-03T11:16:50.543Z,55.31
2022-08-03T11:17:55.971Z,55.18
2022-08-03T11:18:50.542Z,55.31
2022-08-03T11:19:57.087Z,55.21
2022-08-03T11:20:50.543Z,55.21
2022-08-03T11:21:50.549Z,55.21
2022-08-03T11:22:50.557Z,54.92
2022-08-03T11:24:05.493Z,55.11
2022-08-03T11:24:50.554Z,55.11
2022-08-03T11:25:55.030Z,54.82
2022-08-03T11:26:50.556Z,55.21
2022-08-03T11:27:50.558Z,55.31
2022-08-03T11:28:50.566Z,55.31
2022-08-03T11:29:50.576Z,55.21
2022-08-03T11:30:50.582Z,55.21
2022-08-03T11:31:51.828Z,55.02
2022-08-03T11:32:50.574Z,55.02
2022-08-03T11:33:50.575Z,55.02
2022-08-03T11:34:50.577Z,55.02
2022-08-03T11:35:50.570Z,55.02
2022-08-03T11:36:50.571Z,55.02
2022-08-03T11:38:03.149Z,54.92
2022-08-03T11:38:50.582Z,55.02
2022-08-03T11:39:50.579Z,54.99
2022-08-03T11:40:50.589Z,55.08
2022-08-03T11:41:50.595Z,55.11
2022-08-03T11:42:50.592Z,55.21
2022-08-03T11:43:50.601Z,54.92
2022-08-03T11:44:50.606Z,55.18
2022-08-03T11:45:50.594Z,55.21
2022-08-03T11:46:50.605Z,55.31
2022-08-03T11:47:51.440Z,55.11
2022-08-03T11:48:50.619Z,55.31
2022-08-03T11:49:50.611Z,55.21
2022-08-03T11:50:50.614Z,55.18
2022-08-03T11:51:50.623Z,55.08
2022-08-03T11:52:50.626Z,55.21
2022-08-03T11:53:50.610Z,55.21
2022-08-03T11:54:50.618Z,55.02
2022-08-03T11:55:50.620Z,54.63
2022-08-03T11:56:50.623Z,54.82
2022-08-03T11:58:58.131Z,54.82
2022-08-03T11:59:18.698Z,54.53
2022-08-03T11:59:50.633Z,54.72
2022-08-03T12:00:50.629Z,54.72
2022-08-03T12:01:50.634Z,54.72
2022-08-03T12:02:50.654Z,54.82
2022-08-03T12:03:50.657Z,54.72
2022-08-03T12:04:50.639Z,54.53
2022-08-03T12:05:51.555Z,54.44
2022-08-03T12:06:51.159Z,54.24
2022-08-03T12:08:04.122Z,54.05
2022-08-03T12:08:50.649Z,54.72
2022-08-03T12:09:50.645Z,54.82
2022-08-03T12:10:50.650Z,54.72
2022-08-03T12:11:51.630Z,54.72
2022-08-03T12:12:50.660Z,54.53
2022-08-03T12:14:43.877Z,54.72
2022-08-03T12:14:52.321Z,54.53
2022-08-03T12:15:50.659Z,54.53
2022-08-03T12:16:50.674Z,54.63
2022-08-03T12:17:52.781Z,54.72
2022-08-03T12:18:50.660Z,54.72
2022-08-03T12:19:50.672Z,54.72
2022-08-03T12:20:50.661Z,54.72
2022-08-03T12:21:57.220Z,54.72
2022-08-03T12:22:50.674Z,54.63
2022-08-03T12:23:50.677Z,54.14
2022-08-03T12:24:50.681Z,54.44
2022-08-03T12:25:50.681Z,54.63
2022-08-03T12:26:58.556Z,54.72
2022-08-03T12:27:50.688Z,54.44
2022-08-03T12:28:50.686Z,54.72
2022-08-03T12:29:58.349Z,54.72
2022-08-03T12:30:50.694Z,54.72
2022-08-03T12:31:50.694Z,54.53
2022-08-03T12:32:50.691Z,54.72
2022-08-03T12:33:50.688Z,54.72
2022-08-03T12:34:50.697Z,54.53
2022-08-03T12:35:52.266Z,54.72
2022-08-03T12:36:50.707Z,54.44
2022-08-03T12:37:50.707Z,54.44
2022-08-03T12:38:50.716Z,54.63
2022-08-03T12:40:00.573Z,54.44
2022-08-03T12:40:50.704Z,54.63
2022-08-03T12:41:50.711Z,54.53
2022-08-03T12:42:50.707Z,54.34
2022-08-03T12:43:50.718Z,54.63
2022-08-03T12:44:50.718Z,54.72
2022-08-03T12:45:50.718Z,54.72
2022-08-03T12:46:50.716Z,54.53
2022-08-03T12:47:50.721Z,54.72
2022-08-03T12:48:50.717Z,54.72
2022-08-03T12:49:50.729Z,54.14
2022-08-03T12:50:51.853Z,54.44
2022-08-03T12:51:50.741Z,54.63
2022-08-03T12:52:50.735Z,54.63